Time;durP1;ratioP1;P1;durP2;ratioP2;P2;SDS_P1;SDS_P2;PMS_P1;PMS_P2;Temp;Humidity;BMP_temperature;BMP_pressure;BME280_temperature;BME280_humidity;BME280_pressure;Samples;Min_cycle;Max_cycle;Signal;HPM_P1;HPM_P2
2022/01/29 00:02:22;;;;;;;;;;;;;;;;;;5075228;28;28403;-86
2022/01/29 00:04:47;;;;;;;;;;;;;;;;;;5075441;28;29175;-86
2022/01/29 00:07:12;;;;;;;;;;;;;;;;;;5056977;28;28528;-86
2022/01/29 00:09:38;;;;;;;;;;;;;;;;;;5075248;28;28262;-87
2022/01/29 00:12:03;;;;;;;;;;;;;;;;;;5059859;28;28377;-87
2022/01/29 00:14:28;;;;;;;;;;;;;;;;;;5056900;28;28404;-87
2022/01/29 00:16:53;;;;;;;;;;;;;;;;;;5074925;28;28407;-87
2022/01/29 00:19:18;;;;;;;;;;;;;;;;;;5075035;28;28450;-88
2022/01/29 00:21:44;;;;;;;;;;;;;;;;;;5074791;28;28423;-87
2022/01/29 00:24:09;;;;;;;;;;;;;;;;;;5075047;28;28475;-86
2022/01/29 00:26:34;;;;;;;;;;;;;;;;;;5056712;28;28566;-88
2022/01/29 00:29:04;;;;;;;;;;;;;;;;;;5075247;28;28440;-87
2022/01/29 00:31:31;;;;;;;;;;;;;;;;;;5074744;28;28521;-88
2022/01/29 00:33:56;;;;;;;;;;;;;;;;;;5074634;28;28395;-88
2022/01/29 00:36:21;;;;;;;;;;;;;;;;;;5074575;28;28583;-88
2022/01/29 00:38:46;;;;;;;;;;;;;;;;;;5075314;28;29918;-87
2022/01/29 00:41:11;;;;;;;;;;;;;;;;;;5054478;28;28625;-87
2022/01/29 00:43:36;;;;;;;;;;;;;;;;;;5055996;28;28344;-88
2022/01/29 00:46:02;;;;;;;;;;;;;;;;;;5056293;28;28443;-89
2022/01/29 00:48:27;;;;;;;;;;;;;;;;;;5074771;28;28366;-87
2022/01/29 00:50:52;;;;;;;;;;;;;;;;;;5056646;28;28374;-86
2022/01/29 00:53:17;;;;;;;;;;;;;;;;;;5074690;28;29156;-87
2022/01/29 00:55:42;;;;;;;;;;;;;;;;;;5061833;28;28366;-88
2022/01/29 00:58:07;;;;;;;;;;;;;;;;;;5065271;28;28372;-86
2022/01/29 01:00:32;;;;;;;;;;;;;;;;;;5063007;28;35246;-88
2022/01/29 01:02:58;;;;;;;;;;;;;;;;;;5056161;28;28468;-87
2022/01/29 01:05:23;;;;;;;;;;;;;;;;;;5073618;28;28363;-88
2022/01/29 01:07:48;;;;;;;;;;;;;;;;;;5073524;28;29124;-87
2022/01/29 01:10:13;;;;;;;;;;;;;;;;;;5073883;28;28432;-88
2022/01/29 01:12:38;;;;;;;;;;;;;;;;;;5077954;28;28419;-87
2022/01/29 01:15:03;;;;;;;;;;;;;;;;;;5078526;28;28415;-87
2022/01/29 01:17:28;;;;;;;;;;;;;;;;;;5077803;28;28438;-90
2022/01/29 01:19:53;;;;;;;;;;;;;;;;;;5078360;28;28412;-89
2022/01/29 01:22:19;;;;;;;;;;;;;;;;;;5060849;28;29813;-86
2022/01/29 01:24:44;;;;;;;;;;;;;;;;;;5078064;28;28348;-89
2022/01/29 01:27:09;;;;;;;;;;;;;;;;;;5077778;28;28348;-84
2022/01/29 01:29:34;;;;;;;;;;;;;;;;;;5078110;28;28590;-84
2022/01/29 01:31:59;;;;;;;;;;;;;;;;;;5075521;28;29428;-84
2022/01/29 01:34:27;;;;;;;;;;;;;;;;;;5077149;28;28426;-83
2022/01/29 01:36:57;;;;;;;;;;;;;;;;;;5077520;28;28402;-84
2022/01/29 01:39:28;;;;;;;;;;;;;;;;;;5077290;28;28375;-84
2022/01/29 01:42:03;;;;;;;;;;;;;;;;;;5077138;28;28470;-84
2022/01/29 01:44:28;;;;;;;;;;;;;;;;;;5077399;28;28320;-83
2022/01/29 01:46:53;;;;;;;;;;;;;;;;;;5076875;28;28533;-83
2022/01/29 01:49:19;;;;;;;;;;;;;;;;;;5077680;28;28334;-83
2022/01/29 01:51:44;;;;;;;;;;;;;;;;;;5077150;28;29190;-83
2022/01/29 01:54:09;;;;;;;;;;;;;;;;;;5058615;28;32330;-83
2022/01/29 01:56:34;;;;;;;;;;;;;;;;;;5059086;28;28246;-83
2022/01/29 01:58:59;;;;;;;;;;;;;;;;;;5059048;28;28508;-83
2022/01/29 02:01:24;;;;;;;;;;;;;;;;;;5076988;28;28431;-83
2022/01/29 02:03:50;;;;;;;;;;;;;;;;;;5076536;28;28309;-83
2022/01/29 02:06:15;;;;;;;;;;;;;;;;;;5076898;28;28366;-82
2022/01/29 02:08:40;;;;;;;;;;;;;;;;;;5077287;28;28304;-82
2022/01/29 02:11:05;;;;;;;;;;;;;;;;;;5076853;28;28555;-83
2022/01/29 02:13:30;;;;;;;;;;;;;;;;;;5077232;28;28265;-83
2022/01/29 02:15:56;;;;;;;;;;;;;;;;;;5076563;28;28288;-83
2022/01/29 02:18:21;;;;;;;;;;;;;;;;;;5077030;28;28336;-83
2022/01/29 02:20:46;;;;;;;;;;;;;;;;;;5076341;28;29611;-83
2022/01/29 02:23:11;;;;;;;;;;;;;;;;;;5075639;28;28391;-83
2022/01/29 02:25:36;;;;;;;;;;;;;;;;;;5076943;28;28376;-83
2022/01/29 02:28:01;;;;;;;;;;;;;;;;;;5077034;28;28337;-83
2022/01/29 02:30:29;;;;;;;;;;;;;;;;;;5076823;28;28436;-83
2022/01/29 02:32:54;;;;;;;;;;;;;;;;;;5075814;28;28411;-83
2022/01/29 02:35:19;;;;;;;;;;;;;;;;;;5076542;28;29746;-82
2022/01/29 02:37:50;;;;;;;;;;;;;;;;;;5076891;28;28424;-82
2022/01/29 02:40:16;;;;;;;;;;;;;;;;;;5076178;28;28605;-81
2022/01/29 02:42:41;;;;;;;;;;;;;;;;;;5076451;28;28447;-81
2022/01/29 02:45:07;;;;;;;;;;;;;;;;;;5076464;28;28311;-81
2022/01/29 02:47:33;;;;;;;;;;;;;;;;;;5058334;28;28353;-81
2022/01/29 02:49:58;;;;;;;;;;;;;;;;;;5076584;28;28621;-81
2022/01/29 02:52:23;;;;;;;;;;;;;;;;;;5076416;28;28486;-82
2022/01/29 02:54:48;;;;;;;;;;;;;;;;;;5076224;28;28484;-81
2022/01/29 02:57:13;;;;;;;;;;;;;;;;;;5076196;28;28604;-80
2022/01/29 02:59:38;;;;;;;;;;;;;;;;;;5076118;28;28402;-79
2022/01/29 03:02:03;;;;;;;;;;;;;;;;;;5076360;28;28342;-80
2022/01/29 03:04:29;;;;;;;;;;;;;;;;;;5075311;28;28525;-81
2022/01/29 03:06:54;;;;;;;;;;;;;;;;;;5076299;28;28348;-81
2022/01/29 03:09:19;;;;;;;;;;;;;;;;;;5076165;28;34334;-82
2022/01/29 03:11:44;;;;;;;;;;;;;;;;;;5075988;28;28332;-82
2022/01/29 03:14:09;;;;;;;;;;;;;;;;;;5076024;28;28435;-82
2022/01/29 03:16:34;;;;;;;;;;;;;;;;;;5076196;28;28300;-82
2022/01/29 03:18:59;;;;;;;;;;;;;;;;;;5075815;28;28343;-82
2022/01/29 03:21:24;;;;;;;;;;;;;;;;;;5075684;28;28468;-82
2022/01/29 03:23:49;;;;;;;;;;;;;;;;;;5076052;28;28512;-82
2022/01/29 03:26:15;;;;;;;;;;;;;;;;;;5075897;28;28350;-82
2022/01/29 03:28:40;;;;;;;;;;;;;;;;;;5075673;28;28502;-83
2022/01/29 03:31:05;;;;;;;;;;;;;;;;;;5075705;28;28664;-83
2022/01/29 03:33:30;;;;;;;;;;;;;;;;;;5075190;28;28498;-83
2022/01/29 03:35:55;;;;;;;;;;;;;;;;;;5075856;28;28384;-82
2022/01/29 03:38:20;;;;;;;;;;;;;;;;;;5075337;28;29276;-82
2022/01/29 03:40:48;;;;;;;;;;;;;;;;;;5075346;28;28397;-82
2022/01/29 03:43:16;;;;;;;;;;;;;;;;;;5075826;28;28354;-84
2022/01/29 03:45:41;;;;;;;;;;;;;;;;;;5075318;28;28474;-84
2022/01/29 03:48:06;;;;;;;;;;;;;;;;;;5075219;28;28454;-83
2022/01/29 03:50:31;;;;;;;;;;;;;;;;;;5075502;28;28388;-83
2022/01/29 03:52:56;;;;;;;;;;;;;;;;;;5075619;28;28333;-84
2022/01/29 03:55:22;;;;;;;;;;;;;;;;;;5075272;28;28255;-84
2022/01/29 03:57:47;;;;;;;;;;;;;;;;;;5075315;28;28435;-84
2022/01/29 04:00:14;;;;;;;;;;;;;;;;;;5075557;28;28370;-84
2022/01/29 04:02:39;;;;;;;;;;;;;;;;;;5075519;28;28411;-84
2022/01/29 04:05:05;;;;;;;;;;;;;;;;;;5074871;28;28420;-84
2022/01/29 04:07:30;;;;;;;;;;;;;;;;;;5075355;28;29210;-84
2022/01/29 04:09:55;;;;;;;;;;;;;;;;;;5075198;28;28336;-84
2022/01/29 04:12:20;;;;;;;;;;;;;;;;;;5057139;28;28467;-84
2022/01/29 04:14:46;;;;;;;;;;;;;;;;;;5074947;28;28296;-84
2022/01/29 04:17:11;;;;;;;;;;;;;;;;;;5075000;28;28337;-84
2022/01/29 04:19:36;;;;;;;;;;;;;;;;;;5074913;28;28456;-84
2022/01/29 04:22:01;;;;;;;;;;;;;;;;;;5056794;28;28506;-84
2022/01/29 04:24:26;;;;;;;;;;;;;;;;;;5075292;28;28460;-84
2022/01/29 04:26:52;;;;;;;;;;;;;;;;;;5074164;28;29423;-84
2022/01/29 04:29:17;;;;;;;;;;;;;;;;;;5074975;28;28376;-84
2022/01/29 04:32:07;;;;;;;;;;;;;;;;;;5075090;28;28403;-84
2022/01/29 04:34:32;;;;;;;;;;;;;;;;;;5074797;28;28467;-84
2022/01/29 04:36:57;;;;;;;;;;;;;;;;;;5074615;28;29186;-84
2022/01/29 04:39:22;;;;;;;;;;;;;;;;;;5075069;28;28316;-84
2022/01/29 04:41:47;;;;;;;;;;;;;;;;;;5074657;28;27840;-84
2022/01/29 04:44:13;;;;;;;;;;;;;;;;;;5074526;28;27812;-84
2022/01/29 04:46:38;;;;;;;;;;;;;;;;;;5076895;28;28503;-84
2022/01/29 04:49:03;;;;;;;;;;;;;;;;;;5078287;28;28685;-84
2022/01/29 04:51:28;;;;;;;;;;;;;;;;;;5078421;28;28426;-84
2022/01/29 04:53:53;;;;;;;;;;;;;;;;;;5078367;28;28411;-84
2022/01/29 04:56:18;;;;;;;;;;;;;;;;;;5077906;28;28357;-83
2022/01/29 04:58:43;;;;;;;;;;;;;;;;;;5078324;28;28352;-84
2022/01/29 05:01:08;;;;;;;;;;;;;;;;;;5078132;28;28500;-84
2022/01/29 05:03:34;;;;;;;;;;;;;;;;;;5078503;28;28375;-83
2022/01/29 05:05:59;;;;;;;;;;;;;;;;;;5077621;28;28486;-84
2022/01/29 05:08:24;;;;;;;;;;;;;;;;;;5077711;28;28482;-83
2022/01/29 05:10:49;;;;;;;;;;;;;;;;;;5077976;28;28471;-83
2022/01/29 05:13:19;;;;;;;;;;;;;;;;;;5078048;28;28419;-83
2022/01/29 05:29:36;;;;;;;;;;;;;;;;;;5035354;28;28123;-84
2022/01/29 05:32:01;;;;;;;;;;;;;;;;;;5035242;28;28564;-83
2022/01/29 05:34:26;;;;;;;;;;;;;;;;;;5035446;28;28419;-83
2022/01/29 05:36:53;;;;;;;;;;;;;;;;;;5034889;28;29253;-83
2022/01/29 05:39:18;;;;;;;;;;;;;;;;;;5035125;28;28401;-83
2022/01/29 05:41:43;;;;;;;;;;;;;;;;;;5034876;28;28310;-83
2022/01/29 05:44:08;;;;;;;;;;;;;;;;;;5035120;28;28385;-83
2022/01/29 05:46:33;;;;;;;;;;;;;;;;;;5034930;28;29434;-82
2022/01/29 05:48:58;;;;;;;;;;;;;;;;;;5035142;28;27882;-81
2022/01/29 05:51:24;;;;;;;;;;;;;;;;;;5034299;28;28599;-81
2022/01/29 05:53:49;;;;;;;;;;;;;;;;;;5034367;28;28701;-81
2022/01/29 05:56:14;;;;;;;;;;;;;;;;;;5034659;28;28594;-82
2022/01/29 05:58:39;;;;;;;;;;;;;;;;;;5034853;28;28456;-82
2022/01/29 06:01:04;;;;;;;;;;;;;;;;;;5034706;28;28400;-82
2022/01/29 06:03:29;;;;;;;;;;;;;;;;;;5034847;28;28337;-82
2022/01/29 06:05:54;;;;;;;;;;;;;;;;;;5045448;28;28466;-81
2022/01/29 06:08:19;;;;;;;;;;;;;;;;;;5067141;28;28324;-81
2022/01/29 06:10:45;;;;;;;;;;;;;;;;;;5075491;28;28384;-82
2022/01/29 06:13:10;;;;;;;;;;;;;;;;;;5077203;28;28440;-81
2022/01/29 06:15:37;;;;;;;;;;;;;;;;;;5076918;28;28405;-81
2022/01/29 06:18:03;;;;;;;;;;;;;;;;;;5076763;28;28225;-81
2022/01/29 06:20:28;;;;;;;;;;;;;;;;;;5076675;28;28569;-81
2022/01/29 06:22:53;;;;;;;;;;;;;;;;;;5057873;28;28357;-81
2022/01/29 06:25:18;;;;;;;;;;;;;;;;;;5056508;28;28332;-81
2022/01/29 06:27:43;;;;;;;;;;;;;;;;;;5056694;28;28404;-81
2022/01/29 06:30:08;;;;;;;;;;;;;;;;;;5038618;28;28523;-82
2022/01/29 06:32:33;;;;;;;;;;;;;;;;;;5071399;28;28343;-81
2022/01/29 06:34:58;;;;;;;;;;;;;;;;;;5076696;28;29313;-81
2022/01/29 06:37:24;;;;;;;;;;;;;;;;;;5076611;28;28416;-81
2022/01/29 06:39:49;;;;;;;;;;;;;;;;;;5076696;28;28398;-81
2022/01/29 06:42:14;;;;;;;;;;;;;;;;;;5076490;28;27884;-81
2022/01/29 06:44:39;;;;;;;;;;;;;;;;;;5044864;28;28437;-81
2022/01/29 06:47:04;;;;;;;;;;;;;;;;;;5056509;28;28479;-81
2022/01/29 06:49:29;;;;;;;;;;;;;;;;;;5056162;28;28388;-81
2022/01/29 06:51:54;;;;;;;;;;;;;;;;;;5056505;28;28522;-81
2022/01/29 06:54:19;;;;;;;;;;;;;;;;;;5056265;28;28440;-81
2022/01/29 06:56:44;;;;;;;;;;;;;;;;;;5070519;28;28498;-81
2022/01/29 06:59:09;;;;;;;;;;;;;;;;;;5076477;28;28546;-81
2022/01/29 07:01:35;;;;;;;;;;;;;;;;;;5074331;28;28545;-81
2022/01/29 07:04:00;;;;;;;;;;;;;;;;;;5074679;28;28455;-81
2022/01/29 07:06:25;;;;;;;;;;;;;;;;;;5076055;28;28465;-82
2022/01/29 07:08:50;;;;;;;;;;;;;;;;;;5075718;28;28809;-82
2022/01/29 07:11:19;;;;;;;;;;;;;;;;;;5076134;28;28481;-82
2022/01/29 07:13:44;;;;;;;;;;;;;;;;;;5042563;28;28531;-82
2022/01/29 07:16:09;;;;;;;;;;;;;;;;;;5056066;28;28300;-82
2022/01/29 07:18:34;;;;;;;;;;;;;;;;;;5055771;28;28655;-82
2022/01/29 07:21:00;;;;;;;;;;;;;;;;;;5061214;28;28314;-82
2022/01/29 07:23:25;;;;;;;;;;;;;;;;;;5075916;28;28536;-83
2022/01/29 07:25:50;;;;;;;;;;;;;;;;;;5075682;28;28292;-82
2022/01/29 07:28:15;;;;;;;;;;;;;;;;;;5062583;28;28317;-83
2022/01/29 07:30:41;;;;;;;;;;;;;;;;;;5055569;28;28246;-83
2022/01/29 07:33:06;;;;;;;;;;;;;;;;;;5055698;28;28480;-82
2022/01/29 07:35:31;;;;;;;;;;;;;;;;;;5055130;28;28377;-82
2022/01/29 07:37:56;;;;;;;;;;;;;;;;;;5066058;28;28493;-82
2022/01/29 07:40:21;;;;;;;;;;;;;;;;;;5073831;28;28343;-82
2022/01/29 07:42:46;;;;;;;;;;;;;;;;;;5073720;28;29550;-83
2022/01/29 07:45:11;;;;;;;;;;;;;;;;;;5075631;28;27955;-83
2022/01/29 07:47:36;;;;;;;;;;;;;;;;;;5075504;28;28279;-83
2022/01/29 07:50:01;;;;;;;;;;;;;;;;;;5064174;28;28503;-82
2022/01/29 07:52:27;;;;;;;;;;;;;;;;;;5055422;28;28513;-83
2022/01/29 07:54:52;;;;;;;;;;;;;;;;;;5055161;28;28295;-82
2022/01/29 07:57:17;;;;;;;;;;;;;;;;;;5055337;28;28166;-82
2022/01/29 07:59:42;;;;;;;;;;;;;;;;;;5055163;28;28359;-82
2022/01/29 08:02:07;;;;;;;;;;;;;;;;;;5067906;28;29348;-82
2022/01/29 08:04:33;;;;;;;;;;;;;;;;;;5075601;28;28476;-82
2022/01/29 08:06:58;;;;;;;;;;;;;;;;;;5075319;28;28479;-82
2022/01/29 08:09:23;;;;;;;;;;;;;;;;;;5071984;28;28372;-82
2022/01/29 08:11:48;;;;;;;;;;;;;;;;;;5073216;28;28587;-82
2022/01/29 08:14:13;;;;;;;;;;;;;;;;;;5075406;28;28496;-85
2022/01/29 08:16:38;;;;;;;;;;;;;;;;;;5075217;28;27796;-82
2022/01/29 08:19:03;;;;;;;;;;;;;;;;;;5075157;28;28450;-82
2022/01/29 08:21:28;;;;;;;;;;;;;;;;;;5062538;28;28395;-82
2022/01/29 08:23:53;;;;;;;;;;;;;;;;;;5058456;28;28372;-82
2022/01/29 08:26:19;;;;;;;;;;;;;;;;;;5040771;28;28317;-82
2022/01/29 08:28:44;;;;;;;;;;;;;;;;;;5063332;28;28391;-82
2022/01/29 08:31:09;;;;;;;;;;;;;;;;;;5076536;28;28515;-82
2022/01/29 08:33:34;;;;;;;;;;;;;;;;;;5078370;28;28340;-83
2022/01/29 08:35:59;;;;;;;;;;;;;;;;;;5078470;28;28469;-83
2022/01/29 08:38:24;;;;;;;;;;;;;;;;;;5078673;28;28482;-83
2022/01/29 08:40:49;;;;;;;;;;;;;;;;;;5060170;28;29849;-83
2022/01/29 08:43:14;;;;;;;;;;;;;;;;;;5058506;28;28340;-83
2022/01/29 08:45:40;;;;;;;;;;;;;;;;;;5059372;28;28383;-83
2022/01/29 08:48:05;;;;;;;;;;;;;;;;;;5058389;28;28412;-83
2022/01/29 08:50:30;;;;;;;;;;;;;;;;;;5058107;28;28517;-83
2022/01/29 08:52:55;;;;;;;;;;;;;;;;;;5058031;28;28381;-83
2022/01/29 08:55:20;;;;;;;;;;;;;;;;;;5041228;28;28607;-82
2022/01/29 08:57:45;;;;;;;;;;;;;;;;;;5058285;28;35960;-82
2022/01/29 09:00:11;;;;;;;;;;;;;;;;;;5057637;28;29051;-82
2022/01/29 09:02:36;;;;;;;;;;;;;;;;;;5057784;28;28345;-81
2022/01/29 09:05:01;;;;;;;;;;;;;;;;;;5061654;28;28401;-83
2022/01/29 09:07:26;;;;;;;;;;;;;;;;;;5065895;28;28404;-82
2022/01/29 09:09:51;;;;;;;;;;;;;;;;;;5057763;28;28392;-84
2022/01/29 09:12:16;;;;;;;;;;;;;;;;;;5057989;28;28479;-82
2022/01/29 09:14:42;;;;;;;;;;;;;;;;;;5059051;28;28438;-82
2022/01/29 09:17:07;;;;;;;;;;;;;;;;;;5057803;28;28377;-84
2022/01/29 09:19:32;;;;;;;;;;;;;;;;;;5058841;28;28532;-87
2022/01/29 09:21:57;;;;;;;;;;;;;;;;;;5057132;28;28453;-86
2022/01/29 09:24:23;;;;;;;;;;;;;;;;;;5070396;28;28495;-86
2022/01/29 09:26:48;;;;;;;;;;;;;;;;;;5077773;28;28346;-85
2022/01/29 09:29:13;;;;;;;;;;;;;;;;;;5061577;28;28380;-85
2022/01/29 09:31:38;;;;;;;;;;;;;;;;;;5057121;28;28436;-85
2022/01/29 09:34:03;;;;;;;;;;;;;;;;;;5069183;28;28458;-85
2022/01/29 09:36:28;;;;;;;;;;;;;;;;;;5077718;28;28421;-84
2022/01/29 09:38:54;;;;;;;;;;;;;;;;;;5058328;28;28929;-87
2022/01/29 09:41:19;;;;;;;;;;;;;;;;;;5066520;28;28462;-88
2022/01/29 09:43:46;;;;;;;;;;;;;;;;;;5078324;28;28330;-89
2022/01/29 09:46:11;;;;;;;;;;;;;;;;;;5072867;28;28481;-91
2022/01/29 09:48:36;;;;;;;;;;;;;;;;;;5046466;28;28657;-89
2022/01/29 09:51:01;;;;;;;;;;;;;;;;;;5057222;28;28480;-87
2022/01/29 09:53:26;;;;;;;;;;;;;;;;;;5058876;28;28414;-87
2022/01/29 09:55:51;;;;;;;;;;;;;;;;;;5076040;28;28445;-85
2022/01/29 09:58:16;;;;;;;;;;;;;;;;;;5076857;28;29852;-86
2022/01/29 10:00:42;;;;;;;;;;;;;;;;;;5076445;28;28907;-86
2022/01/29 10:03:07;;;;;;;;;;;;;;;;;;5076931;28;28411;-87
2022/01/29 10:05:32;;;;;;;;;;;;;;;;;;5076883;28;28341;-87
2022/01/29 10:07:57;;;;;;;;;;;;;;;;;;5076655;28;28611;-86
2022/01/29 10:10:22;;;;;;;;;;;;;;;;;;5076851;28;28357;-86
2022/01/29 10:12:47;;;;;;;;;;;;;;;;;;5076904;28;28360;-87
2022/01/29 10:15:12;;;;;;;;;;;;;;;;;;5076815;28;28542;-87
2022/01/29 10:17:38;;;;;;;;;;;;;;;;;;5076578;28;29445;-87
2022/01/29 10:20:03;;;;;;;;;;;;;;;;;;5076454;28;28533;-86
2022/01/29 10:22:28;;;;;;;;;;;;;;;;;;5076537;28;28588;-85
2022/01/29 10:24:53;;;;;;;;;;;;;;;;;;5076706;28;28498;-85
2022/01/29 10:27:18;;;;;;;;;;;;;;;;;;5076516;28;29444;-87
2022/01/29 10:29:43;;;;;;;;;;;;;;;;;;5076307;28;28439;-85
2022/01/29 10:32:08;;;;;;;;;;;;;;;;;;5076619;28;28446;-84
2022/01/29 10:34:33;;;;;;;;;;;;;;;;;;5076760;28;35130;-85
2022/01/29 10:36:58;;;;;;;;;;;;;;;;;;5058204;28;28795;-84
2022/01/29 10:39:24;;;;;;;;;;;;;;;;;;5076032;28;28458;-86
2022/01/29 10:41:49;;;;;;;;;;;;;;;;;;5076115;28;28375;-85
2022/01/29 10:44:15;;;;;;;;;;;;;;;;;;5057361;28;28550;-84
2022/01/29 10:46:40;;;;;;;;;;;;;;;;;;5076109;28;28561;-84
2022/01/29 10:49:06;;;;;;;;;;;;;;;;;;5076153;28;28324;-85
2022/01/29 10:51:31;;;;;;;;;;;;;;;;;;5075756;28;28410;-85
2022/01/29 10:53:56;;;;;;;;;;;;;;;;;;5075878;28;28797;-85
2022/01/29 10:56:21;;;;;;;;;;;;;;;;;;5076188;28;29538;-85
2022/01/29 10:58:50;;;;;;;;;;;;;;;;;;5057834;28;28551;-82
2022/01/29 11:01:15;;;;;;;;;;;;;;;;;;5075871;28;28257;-84
2022/01/29 11:03:40;;;;;;;;;;;;;;;;;;5057779;28;28286;-84
2022/01/29 11:06:05;;;;;;;;;;;;;;;;;;5056278;28;28850;-84
2022/01/29 11:08:30;;;;;;;;;;;;;;;;;;5075674;28;28454;-83
2022/01/29 11:10:55;;;;;;;;;;;;;;;;;;5076181;28;28328;-87
2022/01/29 11:13:20;;;;;;;;;;;;;;;;;;5075997;28;28403;-84
2022/01/29 11:15:46;;;;;;;;;;;;;;;;;;5075654;28;28457;-85
2022/01/29 11:18:11;;;;;;;;;;;;;;;;;;5069006;28;29824;-81
2022/01/29 11:20:36;;;;;;;;;;;;;;;;;;5076145;28;28296;-84
2022/01/29 11:23:01;;;;;;;;;;;;;;;;;;5075314;28;28510;-86
2022/01/29 11:25:27;;;;;;;;;;;;;;;;;;5075152;28;28556;-87
2022/01/29 11:27:52;;;;;;;;;;;;;;;;;;5075509;28;28489;-84
2022/01/29 11:30:18;;;;;;;;;;;;;;;;;;5075823;28;28288;-84
2022/01/29 11:32:44;;;;;;;;;;;;;;;;;;5075898;28;28533;-83
2022/01/29 11:35:09;;;;;;;;;;;;;;;;;;5075026;28;29361;-83
2022/01/29 11:37:34;;;;;;;;;;;;;;;;;;5075669;28;28399;-83
2022/01/29 11:39:59;;;;;;;;;;;;;;;;;;5075410;28;28446;-87
2022/01/29 11:42:24;;;;;;;;;;;;;;;;;;5075499;28;28320;-93
2022/01/29 11:44:49;;;;;;;;;;;;;;;;;;5058841;28;29901;-87
2022/01/29 11:47:14;;;;;;;;;;;;;;;;;;5063813;28;28376;-86
2022/01/29 11:49:39;;;;;;;;;;;;;;;;;;5058817;28;28358;-88
2022/01/29 11:52:04;;;;;;;;;;;;;;;;;;5074775;28;28363;-87
2022/01/29 11:54:29;;;;;;;;;;;;;;;;;;5075796;28;29926;-89
2022/01/29 11:56:55;;;;;;;;;;;;;;;;;;5075640;28;28334;-83
2022/01/29 11:59:20;;;;;;;;;;;;;;;;;;5071209;28;28597;-83
2022/01/29 12:01:45;;;;;;;;;;;;;;;;;;5062596;28;28550;-86
2022/01/29 12:04:10;;;;;;;;;;;;;;;;;;5046993;28;29817;-86
2022/01/29 12:06:41;;;;;;;;;;;;;;;;;;5070088;28;28558;-85
2022/01/29 12:09:07;;;;;;;;;;;;;;;;;;5075029;28;28352;-84
2022/01/29 12:11:32;;;;;;;;;;;;;;;;;;5075548;28;28391;-84
2022/01/29 12:13:57;;;;;;;;;;;;;;;;;;5062740;28;28312;-88
2022/01/29 12:16:22;;;;;;;;;;;;;;;;;;5050734;28;28424;-86
2022/01/29 12:18:47;;;;;;;;;;;;;;;;;;5055332;28;28276;-84
2022/01/29 12:21:13;;;;;;;;;;;;;;;;;;5068145;28;28503;-82
2022/01/29 12:23:38;;;;;;;;;;;;;;;;;;5069619;28;28309;-82
2022/01/29 12:26:03;;;;;;;;;;;;;;;;;;5061765;28;28392;-83
2022/01/29 12:28:28;;;;;;;;;;;;;;;;;;5059506;28;28515;-84
2022/01/29 12:30:53;;;;;;;;;;;;;;;;;;5061038;28;28392;-82
2022/01/29 12:33:19;;;;;;;;;;;;;;;;;;5062134;28;28500;-83
2022/01/29 12:35:45;;;;;;;;;;;;;;;;;;5058367;28;28526;-83
2022/01/29 12:38:10;;;;;;;;;;;;;;;;;;5058363;28;28635;-85
2022/01/29 12:40:42;;;;;;;;;;;;;;;;;;5060846;28;28561;-86
2022/01/29 12:43:11;;;;;;;;;;;;;;;;;;5073187;28;28514;-84
2022/01/29 12:45:37;;;;;;;;;;;;;;;;;;5075444;28;28362;-84
2022/01/29 12:48:02;;;;;;;;;;;;;;;;;;5066230;28;28657;-91
2022/01/29 12:50:27;;;;;;;;;;;;;;;;;;5051649;28;28443;-87
2022/01/29 12:52:52;;;;;;;;;;;;;;;;;;5073963;28;28605;-84
2022/01/29 12:55:17;;;;;;;;;;;;;;;;;;5073769;28;28572;-84
2022/01/29 12:57:42;;;;;;;;;;;;;;;;;;5074412;28;28478;-85
2022/01/29 13:00:07;;;;;;;;;;;;;;;;;;5074139;28;28418;-84
2022/01/29 13:02:33;;;;;;;;;;;;;;;;;;5074409;28;28454;-82
2022/01/29 13:04:58;;;;;;;;;;;;;;;;;;5073913;28;28506;-82
2022/01/29 13:07:23;;;;;;;;;;;;;;;;;;5057811;28;28496;-82
2022/01/29 13:09:48;;;;;;;;;;;;;;;;;;5077011;28;28399;-83
2022/01/29 13:12:15;;;;;;;;;;;;;;;;;;5077211;28;28458;-83
2022/01/29 13:14:40;;;;;;;;;;;;;;;;;;5078004;28;28429;-83
2022/01/29 13:17:06;;;;;;;;;;;;;;;;;;5077214;28;28502;-82
2022/01/29 13:19:31;;;;;;;;;;;;;;;;;;5077892;28;28419;-84
2022/01/29 13:21:56;;;;;;;;;;;;;;;;;;5077452;28;28550;-85
2022/01/29 13:24:22;;;;;;;;;;;;;;;;;;5077563;28;28319;-85
2022/01/29 13:26:48;;;;;;;;;;;;;;;;;;5077468;28;28253;-84
2022/01/29 13:29:17;;;;;;;;;;;;;;;;;;5077418;28;28333;-86
2022/01/29 13:31:42;;;;;;;;;;;;;;;;;;5076772;28;28702;-83
2022/01/29 13:34:07;;;;;;;;;;;;;;;;;;5077780;28;28367;-89
2022/01/29 13:36:32;;;;;;;;;;;;;;;;;;5077234;28;28340;-87
2022/01/29 13:38:57;;;;;;;;;;;;;;;;;;5076752;28;28372;-85
2022/01/29 13:41:23;;;;;;;;;;;;;;;;;;5076787;28;29690;-82
2022/01/29 13:43:48;;;;;;;;;;;;;;;;;;5077582;28;28332;-82
2022/01/29 13:46:14;;;;;;;;;;;;;;;;;;5077347;28;28491;-82
2022/01/29 13:48:39;;;;;;;;;;;;;;;;;;5077480;28;28431;-82
2022/01/29 13:51:04;;;;;;;;;;;;;;;;;;5077465;28;29661;-82
2022/01/29 13:53:29;;;;;;;;;;;;;;;;;;5077026;28;28445;-82
2022/01/29 13:55:54;;;;;;;;;;;;;;;;;;5077354;28;28248;-82
2022/01/29 13:58:19;;;;;;;;;;;;;;;;;;5077446;28;28295;-84
2022/01/29 14:00:44;;;;;;;;;;;;;;;;;;5077081;28;28653;-81
2022/01/29 14:03:09;;;;;;;;;;;;;;;;;;5077406;28;28459;-82
2022/01/29 14:05:34;;;;;;;;;;;;;;;;;;5077241;28;28328;-82
2022/01/29 14:08:00;;;;;;;;;;;;;;;;;;5077437;28;28466;-82
2022/01/29 14:10:25;;;;;;;;;;;;;;;;;;5076824;28;28357;-82
2022/01/29 14:12:50;;;;;;;;;;;;;;;;;;5077149;28;28376;-83
2022/01/29 14:15:16;;;;;;;;;;;;;;;;;;5077264;28;28518;-83
2022/01/29 14:17:41;;;;;;;;;;;;;;;;;;5058302;28;28527;-82
2022/01/29 14:20:06;;;;;;;;;;;;;;;;;;5075960;28;29287;-83
2022/01/29 14:22:31;;;;;;;;;;;;;;;;;;5077012;28;28518;-83
2022/01/29 14:24:58;;;;;;;;;;;;;;;;;;5077076;28;28315;-83
2022/01/29 14:27:24;;;;;;;;;;;;;;;;;;5077294;28;28486;-83
2022/01/29 14:29:49;;;;;;;;;;;;;;;;;;5076925;28;29445;-82
2022/01/29 14:32:15;;;;;;;;;;;;;;;;;;5077035;28;28417;-83
2022/01/29 14:34:40;;;;;;;;;;;;;;;;;;5076669;28;28458;-83
2022/01/29 14:37:05;;;;;;;;;;;;;;;;;;5077084;28;28391;-83
2022/01/29 14:39:30;;;;;;;;;;;;;;;;;;5058256;28;30085;-83
2022/01/29 14:41:55;;;;;;;;;;;;;;;;;;5076299;28;28811;-83
2022/01/29 14:44:21;;;;;;;;;;;;;;;;;;5076794;28;28411;-83
2022/01/29 14:46:46;;;;;;;;;;;;;;;;;;5076647;28;29098;-82
2022/01/29 14:49:11;;;;;;;;;;;;;;;;;;5076750;28;28504;-82
2022/01/29 14:51:39;;;;;;;;;;;;;;;;;;5076388;28;28498;-83
2022/01/29 14:54:04;;;;;;;;;;;;;;;;;;5076286;28;28364;-83
2022/01/29 14:56:29;;;;;;;;;;;;;;;;;;5076852;28;28380;-83
2022/01/29 14:58:54;;;;;;;;;;;;;;;;;;5076268;28;28273;-83
2022/01/29 15:01:21;;;;;;;;;;;;;;;;;;5076314;28;28379;-83
2022/01/29 15:03:46;;;;;;;;;;;;;;;;;;5076261;28;28339;-83
2022/01/29 15:06:11;;;;;;;;;;;;;;;;;;5076398;28;28500;-83
2022/01/29 15:08:36;;;;;;;;;;;;;;;;;;5076456;28;29827;-83
2022/01/29 15:11:01;;;;;;;;;;;;;;;;;;5075939;28;28616;-83
2022/01/29 15:13:27;;;;;;;;;;;;;;;;;;5076340;28;28313;-83
2022/01/29 15:15:52;;;;;;;;;;;;;;;;;;5076242;28;28313;-83
2022/01/29 15:18:18;;;;;;;;;;;;;;;;;;5076034;28;28501;-83
2022/01/29 15:20:45;;;;;;;;;;;;;;;;;;5075873;28;28333;-84
2022/01/29 15:23:10;;;;;;;;;;;;;;;;;;5075778;28;28371;-83
2022/01/29 15:25:37;;;;;;;;;;;;;;;;;;5076052;28;28354;-84
2022/01/29 15:28:04;;;;;;;;;;;;;;;;;;5075728;28;29389;-83
2022/01/29 15:30:29;;;;;;;;;;;;;;;;;;5075408;28;28300;-83
2022/01/29 15:32:55;;;;;;;;;;;;;;;;;;5076180;28;28284;-83
2022/01/29 15:35:20;;;;;;;;;;;;;;;;;;5075915;28;28843;-82
2022/01/29 15:37:45;;;;;;;;;;;;;;;;;;5075818;28;29508;-82
2022/01/29 15:40:10;;;;;;;;;;;;;;;;;;5075390;28;28238;-82
2022/01/29 15:42:35;;;;;;;;;;;;;;;;;;5075676;28;28344;-82
2022/01/29 15:45:00;;;;;;;;;;;;;;;;;;5076006;28;28394;-82
2022/01/29 15:47:26;;;;;;;;;;;;;;;;;;5075196;28;29427;-82
2022/01/29 15:49:51;;;;;;;;;;;;;;;;;;5075561;28;28701;-82
2022/01/29 15:52:16;;;;;;;;;;;;;;;;;;5075691;28;28356;-82
2022/01/29 15:54:41;;;;;;;;;;;;;;;;;;5075686;28;28454;-83
2022/01/29 15:57:06;;;;;;;;;;;;;;;;;;5075672;28;28516;-84
2022/01/29 15:59:31;;;;;;;;;;;;;;;;;;5075318;28;28364;-82
2022/01/29 16:01:59;;;;;;;;;;;;;;;;;;5075374;28;28344;-83
2022/01/29 16:04:24;;;;;;;;;;;;;;;;;;5075328;28;28383;-82
2022/01/29 16:06:49;;;;;;;;;;;;;;;;;;5075165;28;28430;-82
2022/01/29 16:09:19;;;;;;;;;;;;;;;;;;5075307;28;28522;-82
2022/01/29 16:11:44;;;;;;;;;;;;;;;;;;5075301;28;27959;-82
2022/01/29 16:14:09;;;;;;;;;;;;;;;;;;5075625;28;28364;-82
2022/01/29 16:16:34;;;;;;;;;;;;;;;;;;5075094;28;28683;-82
2022/01/29 16:18:59;;;;;;;;;;;;;;;;;;5075096;28;28324;-81
2022/01/29 16:21:24;;;;;;;;;;;;;;;;;;5074798;28;28486;-82
2022/01/29 16:23:49;;;;;;;;;;;;;;;;;;5075179;28;28269;-82
2022/01/29 16:26:14;;;;;;;;;;;;;;;;;;5074981;28;28688;-81
2022/01/29 16:28:40;;;;;;;;;;;;;;;;;;5074849;28;28296;-82
2022/01/29 16:31:05;;;;;;;;;;;;;;;;;;5056919;28;28369;-82
2022/01/29 16:33:30;;;;;;;;;;;;;;;;;;5075140;28;28396;-82
2022/01/29 16:35:55;;;;;;;;;;;;;;;;;;5074906;28;29412;-83
2022/01/29 16:38:20;;;;;;;;;;;;;;;;;;5074958;28;28391;-82
2022/01/29 16:40:46;;;;;;;;;;;;;;;;;;5074457;28;28316;-82
2022/01/29 16:43:11;;;;;;;;;;;;;;;;;;5077915;28;28313;-82
2022/01/29 16:45:38;;;;;;;;;;;;;;;;;;5078209;28;28424;-81
2022/01/29 16:48:03;;;;;;;;;;;;;;;;;;5078302;28;28445;-82